Latest Weather Observations for Barimunya

IDW60801

Issued at 11:35 am WST Friday 25 July 2014 (issued every 30 minutes, with the page automatically refreshed every 10 minutes)

About weather observations | Map of weather stations | Latest weather observations for WA | Other Formats
Station Details ID: 505053 Name: BARIMUNYA Lat: -22.67 Lon: 119.16 Height: 629.17 m
Data from the previous 72 hours. | See also: Recent months for locations in Western Australia
Date/Time
WST
Temp
°C
App
Temp
°C
Dew
Point
Rel
Hum
%
Delta-T
°C
Wind Press
QNH
hPa
Press
MSL
hPa
Rain
since 9 am
mm
Dir
 
Spd
km/h
Gust
km/h
Spd
kts
Gust
kts
25/11:30am 16.2 9.5 1.5 37 6.7 E 26 37 14 20 1023.8 - 0.0
25/11:00am 15.5 8.4 1.6 39 6.3 E 28 37 15 20 1024.2 1023.0 0.0
25/10:30am 15.1 8.1 2.0 41 6.0 E 28 43 15 23 1024.5 - 0.0
25/10:00am 14.8 7.5 2.4 43 5.7 ESE 30 43 16 23 1024.8 1023.7 0.0
25/09:30am 14.0 6.3 2.3 45 5.3 ESE 32 46 17 25 1024.7 - 0.0
25/09:13am 13.3 5.9 1.9 46 5.1 E 30 50 16 27 1024.5 - 0.0
25/09:00am 13.3 5.9 1.9 46 5.1 ESE 30 41 16 22 1024.3 1023.1 0.0
25/08:30am 12.1 6.0 2.6 52 4.3 SE 24 32 13 17 1023.8 - 0.0
25/08:00am 10.1 5.4 3.2 62 3.1 SE 17 20 9 11 1023.8 1022.7 0.0
25/07:30am 8.2 5.6 3.3 71 2.2 SE 6 15 3 8 1023.6 - 0.0
25/07:00am 4.1 2.1 2.3 88 0.7 SE 2 7 1 4 1023.2 1022.1 0.0
25/06:30am 5.2 1.5 2.2 81 1.3 SE 11 15 6 8 1022.8 - 0.0
25/06:00am 4.6 1.8 2.3 85 1.0 ESE 6 7 3 4 1022.8 1021.6 0.0
25/05:30am 4.9 3.3 2.6 85 1.0 CALM 0 0 0 0 1022.5 - 0.0
25/05:00am 4.4 2.8 2.4 87 0.8 CALM 0 0 0 0 1022.2 1021.1 0.0
25/04:30am 4.5 2.9 2.5 87 0.8 CALM 0 0 0 0 1021.7 - 0.0
25/04:00am 4.8 3.4 3.3 90 0.6 CALM 0 0 0 0 1021.6 1020.4 0.0
25/03:30am 5.2 3.7 3.1 86 0.9 CALM 0 2 0 1 1021.7 - 0.0
25/03:00am 5.3 3.8 3.0 85 1.0 CALM 0 0 0 0 1021.7 1020.5 0.0
25/02:30am 5.3 3.4 2.8 84 1.1 ESE 2 7 1 4 1021.9 - 0.0
25/02:00am 5.8 4.4 3.5 85 1.0 CALM 0 0 0 0 1021.6 1020.4 0.0
25/01:30am 5.9 3.4 3.7 86 1.0 ESE 6 7 3 4 1021.8 - 0.0
25/01:00am 8.1 5.3 3.4 72 2.1 ESE 7 7 4 4 1021.5 1020.3 0.0
25/12:30am 8.5 6.7 3.6 71 2.2 SE 2 6 1 3 1021.6 - 0.0
25/12:00am 7.0 5.8 4.8 86 1.0 CALM 0 0 0 0 1021.6 1020.4 0.0
 
Date/Time
WST
Temp
°C
App
Temp
°C
Dew
Point
Rel
Hum
%
Delta-T
°C
Wind Press
QNH
hPa
Press
MSL
hPa
Rain
since 9 am
mm
Dir
 
Spd
km/h
Gust
km/h
Spd
kts
Gust
kts
24/11:30pm 7.1 5.9 4.4 83 1.2 CALM 0 0 0 0 1021.8 - 0.0
24/11:00pm 7.5 6.1 3.7 77 1.7 CALM 0 0 0 0 1022.1 1021.0 0.0
24/10:30pm 7.5 6.2 4.1 79 1.5 CALM 0 0 0 0 1022.2 - 0.0
24/10:00pm 7.6 6.5 4.9 83 1.2 CALM 0 0 0 0 1022.5 1021.3 0.0
24/09:30pm 8.0 6.9 4.9 81 1.4 CALM 0 0 0 0 1022.5 - 0.0
24/09:00pm 9.1 7.6 2.9 65 2.7 CALM 0 0 0 0 1022.3 1021.2 0.0
24/08:30pm 9.0 7.9 5.2 77 1.8 CALM 0 0 0 0 1022.2 - 0.0
24/08:00pm 10.1 8.6 3.2 62 3.1 CALM 0 0 0 0 1021.9 1020.8 0.0
24/07:30pm 10.6 9.4 4.5 66 2.8 CALM 0 0 0 0 1021.6 - 0.0
24/07:00pm 12.4 9.5 1.7 48 4.7 SE 6 7 3 4 1021.1 1019.9 0.0
24/06:30pm 12.7 10.6 2.0 48 4.8 SE 2 7 1 4 1020.6 - 0.0
24/06:00pm 14.7 11.6 1.3 40 6.0 SE 7 9 4 5 1020.6 1019.5 0.0
24/05:30pm 16.2 12.2 0.7 35 7.0 SE 11 15 6 8 1020.3 - 0.0
24/05:00pm 17.2 12.2 -1.0 29 7.9 SSE 15 20 8 11 1020.0 1018.8 0.0
24/04:30pm 17.7 12.4 -0.5 29 8.1 SE 17 22 9 12 1019.7 - 0.0
24/04:00pm 18.0 12.2 -1.3 27 8.4 SSE 19 22 10 12 1019.8 1018.6 0.0
24/03:30pm 18.3 13.1 0.4 30 8.1 SSE 17 22 9 12 1019.9 - 0.0
24/03:00pm 17.8 11.6 0.0 30 8.0 SE 22 26 12 14 1019.8 1018.6 0.0
24/02:30pm 17.0 11.9 0.6 33 7.4 SE 17 26 9 14 1020.0 - 0.0
24/02:00pm 16.7 11.3 1.2 35 7.0 SE 19 28 10 15 1020.2 1019.0 0.0
24/01:30pm 16.4 12.1 1.3 36 6.9 S 13 20 7 11 1020.4 - 0.0
24/01:00pm 16.4 11.3 2.8 40 6.4 SSE 19 28 10 15 1021.1 1019.9 0.0
24/12:30pm 15.3 10.0 2.8 43 5.8 ESE 20 28 11 15 1021.5 - 0.0
24/12:00pm 14.5 8.3 2.1 43 5.6 SE 24 33 13 18 1022.0 1020.9 0.0
24/11:30am 14.3 8.9 2.5 45 5.4 SE 20 32 11 17 1022.6 - 0.0
24/11:00am 14.2 7.8 3.1 47 5.1 ESE 26 37 14 20 1022.9 1021.7 0.0
24/10:30am 13.6 7.1 2.5 47 5.1 SE 26 44 14 24 1023.1 - 0.0
24/10:00am 12.5 5.6 2.7 51 4.4 SSE 28 35 15 19 1023.5 1022.4 0.0
24/09:30am 12.0 5.5 2.5 52 4.3 SE 26 35 14 19 1023.6 - 0.0
24/09:00am 11.4 5.7 2.9 56 3.8 SSE 22 28 12 15 1023.6 1022.5 0.0
24/08:30am 10.3 4.5 2.4 58 3.5 SSE 22 32 12 17 1023.1 - 0.0
24/08:00am 9.4 4.1 1.8 59 3.3 S 19 28 10 15 1022.8 1021.6 0.0
24/07:30am 8.3 3.7 1.7 63 2.8 S 15 19 8 10 1022.5 - 0.0
24/07:00am 6.7 3.6 1.4 69 2.2 S 7 9 4 5 1021.9 1020.8 0.0
24/06:30am 7.0 2.3 1.1 66 2.5 SSW 15 19 8 10 1021.4 - 0.0
24/06:00am 7.8 2.7 1.0 62 2.8 S 17 20 9 11 1021.2 1020.0 0.0
24/05:30am 7.8 3.5 1.0 62 2.8 S 13 19 7 10 1020.9 - 0.0
24/05:00am 7.6 3.3 0.8 62 2.8 SSW 13 17 7 9 1020.5 1019.4 0.0
24/04:30am 8.0 3.7 0.7 60 3.0 SSW 13 15 7 8 1020.2 - 0.0
24/04:00am 9.1 4.8 0.8 56 3.5 S 13 19 7 10 1020.1 1018.9 0.0
24/03:30am 9.2 3.8 1.1 57 3.4 S 19 20 10 11 1020.0 - 0.0
24/03:00am 9.1 5.9 1.0 57 3.4 S 7 11 4 6 1020.1 1018.9 0.0
24/02:30am 9.5 4.9 1.4 57 3.5 S 15 19 8 10 1019.9 - 0.0
24/02:00am 9.1 6.1 1.8 60 3.1 S 7 11 4 6 1019.9 1018.7 0.0
24/01:30am 9.9 6.1 1.8 57 3.5 S 11 15 6 8 1020.0 - 0.0
24/01:00am 10.9 7.4 1.4 52 4.1 SSE 9 13 5 7 1020.1 1018.9 0.0
24/12:30am 10.5 7.1 1.9 55 3.8 S 9 17 5 9 1020.2 - 0.0
24/12:00am 8.7 7.0 4.1 73 2.1 S 2 7 1 4 1020.3 1019.1 0.0
 
Date/Time
WST
Temp
°C
App
Temp
°C
Dew
Point
Rel
Hum
%
Delta-T
°C
Wind Press
QNH
hPa
Press
MSL
hPa
Rain
since 9 am
mm
Dir
 
Spd
km/h
Gust
km/h
Spd
kts
Gust
kts
23/11:30pm 9.5 6.4 3.7 67 2.6 S 9 13 5 7 1020.2 - 0.0
23/11:00pm 10.1 6.6 3.4 63 3.0 S 11 11 6 6 1020.4 1019.3 0.0
23/10:30pm 10.5 7.2 4.4 66 2.8 S 11 15 6 8 1020.5 - 0.0
23/10:00pm 11.6 7.5 4.1 60 3.5 S 15 17 8 9 1020.6 1019.5 0.0
23/09:30pm 9.6 8.6 5.6 76 1.9 CALM 0 0 0 0 1020.6 - 0.0
23/09:00pm 12.4 9.0 4.1 57 3.9 SE 11 13 6 7 1020.4 1019.3 0.0
23/08:30pm 12.6 9.7 4.6 58 3.8 E 9 9 5 5 1020.4 - 0.0
23/08:00pm 13.0 10.4 4.2 55 4.1 E 7 9 4 5 1020.1 1018.9 0.0
23/07:30pm 13.2 10.6 4.4 55 4.2 E 7 9 4 5 1020.1 - 0.0
23/07:00pm 14.1 11.4 3.8 50 4.8 E 7 9 4 5 1020.0 1018.8 0.0
23/06:30pm 14.6 11.8 3.1 46 5.4 SSE 7 9 4 5 1019.7 - 0.0
23/06:00pm 14.9 13.1 3.4 46 5.4 SSE 2 6 1 3 1019.4 1018.2 0.0
23/05:30pm 16.9 13.7 2.9 39 6.6 SSE 9 13 5 7 1019.4 - 0.0
23/05:00pm 17.9 14.4 1.4 33 7.6 SSE 9 13 5 7 1019.1 1017.9 0.0
23/04:30pm 18.0 14.5 1.1 32 7.8 ESE 9 13 5 7 1018.8 - 0.0
23/04:00pm 18.3 14.5 1.8 33 7.7 SSE 11 20 6 11 1018.8 1017.6 0.0
23/03:30pm 18.1 14.1 0.7 31 7.9 ESE 11 19 6 10 1018.7 - 0.0
23/03:00pm 17.8 13.8 0.5 31 7.8 SSE 11 20 6 11 1018.8 1017.6 0.0
23/02:30pm 17.7 13.0 1.2 33 7.6 SSE 15 28 8 15 1019.1 - 0.0
23/02:00pm 17.4 12.8 1.8 35 7.2 S 15 22 8 12 1019.3 1018.1 0.0
23/01:30pm 16.7 12.2 2.0 37 6.8 SE 15 24 8 13 1019.6 - 0.0
23/01:00pm 16.8 12.8 2.8 39 6.6 SE 13 20 7 11 1020.0 1018.8 0.0
23/12:30pm 16.5 12.2 3.2 41 6.3 S 15 20 8 11 1020.5 - 0.0
23/12:00pm 15.7 11.2 2.2 40 6.2 ESE 15 24 8 13 1021.2 1020.0 0.0
23/11:30am 14.6 9.7 1.8 42 5.8 SSE 17 24 9 13 1021.5 - 0.0
23/11:00am 14.2 9.4 2.5 45 5.3 ESE 17 26 9 14 1021.9 1020.8 0.0
23/10:30am 13.9 8.7 3.7 50 4.8 SE 20 32 11 17 1022.1 - 0.0
23/10:00am 12.9 7.6 3.0 51 4.5 SSE 20 26 11 14 1022.3 1021.2 0.0
23/09:30am 12.3 7.1 3.3 54 4.1 SE 20 26 11 14 1022.6 - 0.0
23/09:00am 11.6 6.6 3.6 58 3.7 SSE 19 30 10 16 1022.5 1021.3 0.0
23/08:30am 10.8 5.8 3.6 61 3.3 SSE 19 26 10 14 1022.2 - 0.0
23/08:00am 10.0 5.0 3.7 65 2.9 SSE 19 28 10 15 1022.0 1020.9 0.0
23/07:30am 9.1 4.5 3.5 68 2.5 S 17 22 9 12 1021.6 - 0.0
23/07:00am 8.3 4.5 3.9 74 2.0 S 13 19 7 10 1021.3 1020.1 0.0
23/06:30am 8.0 4.2 4.0 76 1.8 S 13 17 7 9 1021.0 - 0.0
23/06:00am 8.8 3.9 4.0 72 2.2 S 19 22 10 12 1020.6 1019.5 0.0
23/05:30am 9.4 4.9 4.0 69 2.5 S 17 24 9 13 1020.3 - 0.0
23/05:00am 9.0 5.2 4.0 71 2.3 SSE 13 19 7 10 1020.1 1018.9 0.0
23/04:30am 9.1 5.3 3.7 69 2.4 SSE 13 17 7 9 1020.3 - 0.0
23/04:00am 8.9 4.6 3.5 69 2.4 S 15 15 8 8 1020.1 1018.9 0.0
23/03:30am 9.8 5.2 3.8 66 2.7 S 17 19 9 10 1019.9 - 0.0
23/03:00am 8.7 7.4 4.1 73 2.1 CALM 0 0 0 0 1020.0 1018.8 0.0
23/02:30am 9.7 5.9 3.9 67 2.6 S 13 19 7 10 1019.8 - 0.0
23/02:00am 10.1 6.3 3.8 65 2.9 S 13 15 7 8 1020.1 1018.9 0.0
23/01:30am 10.5 7.1 4.0 64 3.0 S 11 15 6 8 1020.4 - 0.0
23/01:00am 10.5 7.5 4.2 65 2.9 S 9 11 5 6 1020.3 1019.1 0.0
23/12:30am 10.9 7.6 4.4 64 3.0 S 11 13 6 7 1020.3 - 0.0
23/12:00am 11.5 8.6 4.7 63 3.2 S 9 13 5 7 1020.3 1019.1 0.0
 
Date/Time
WST
Temp
°C
App
Temp
°C
Dew
Point
Rel
Hum
%
Delta-T
°C
Wind Press
QNH
hPa
Press
MSL
hPa
Rain
since 9 am
mm
Dir
 
Spd
km/h
Gust
km/h
Spd
kts
Gust
kts
22/11:30pm 12.5 8.8 4.5 58 3.8 S 13 15 7 8 1020.4 - 0.0
22/11:00pm 13.0 9.0 4.7 57 3.9 S 15 19 8 10 1020.4 1019.3 0.0
22/10:30pm 13.5 9.9 4.9 56 4.1 S 13 15 7 8 1020.4 - 0.0
22/10:00pm 13.2 10.3 4.9 57 4.0 S 9 11 5 6 1020.3 1019.1 0.0
22/09:30pm 13.6 10.7 4.7 55 4.3 S 9 13 5 7 1020.1 - 0.0
22/09:00pm 14.7 11.0 4.4 50 4.9 SSW 13 15 7 8 1020.0 1018.8 0.0
22/08:30pm 14.5 10.8 4.2 50 4.9 SSW 13 19 7 10 1019.9 - 0.0
22/08:00pm 15.0 10.8 3.8 47 5.3 SSW 15 17 8 9 1019.7 1018.5 0.0
22/07:30pm 15.3 11.4 3.5 45 5.6 SSW 13 19 7 10 1019.5 - 0.0
22/07:00pm 16.0 11.7 3.4 43 6.0 SSW 15 17 8 9 1019.2 1018.0 0.0
22/06:30pm 16.6 12.7 3.6 42 6.2 S 13 15 7 8 1018.6 - 0.0
22/06:00pm 17.1 13.3 3.8 41 6.4 S 13 19 7 10 1018.3 1017.1 0.0
22/05:30pm 18.5 14.2 3.2 36 7.4 S 15 17 8 9 1017.9 - 0.0
22/05:00pm 19.8 15.0 2.6 32 8.3 SSW 17 24 9 13 1017.5 1016.2 0.0
22/04:30pm 20.4 15.9 2.3 30 8.7 SSW 15 26 8 14 1017.2 - 0.0
22/04:00pm 20.9 16.7 3.6 32 8.5 S 15 24 8 13 1017.1 1015.9 0.0
22/03:30pm 20.7 16.8 3.4 32 8.5 SW 13 22 7 12 1017.1 - 0.0
22/03:00pm 20.9 16.4 4.0 33 8.4 S 17 26 9 14 1017.0 1015.8 0.0
22/02:30pm 20.6 16.0 3.8 33 8.3 SSW 17 24 9 13 1017.0 - 0.0
22/02:00pm 20.8 15.9 4.0 33 8.3 SW 19 28 10 15 1017.2 1016.0 0.0
22/01:30pm 20.4 16.5 5.2 37 7.7 SSW 15 43 8 23 1017.4 - 0.0
22/01:00pm 19.5 14.6 4.0 36 7.6 SSW 19 30 10 16 1017.8 1016.6 0.0
22/12:30pm 19.6 15.2 4.5 37 7.5 SSW 17 26 9 14 1018.1 - 0.0
22/12:00pm 19.0 15.2 5.8 42 6.7 SW 15 26 8 14 1018.5 1017.3 0.0

Other Formats:

Comma delimited format used in spreadsheet applications
http://www.bom.gov.au/fwo/IDW60801/IDW60801.99313.axf

JavaScript Object Notation format (JSON) in row-major order
http://www.bom.gov.au/fwo/IDW60801/IDW60801.99313.json